Time;durP1;ratioP1;P1;durP2;ratioP2;P2;SDS_P1;SDS_P2;PMS_P1;PMS_P2;Temp;Humidity;BMP_temperature;BMP_pressure;BME280_temperature;BME280_humidity;BME280_pressure;Samples;Min_cycle;Max_cycle;Signal;HPM_P1;HPM_P2
2021/11/13 00:05:40;;;;;;;1999.90;999.90;;;;;;;4.52;81.36;101061.66;15532750;28;20054;-59
2021/11/13 00:13:13;;;;;;;1999.90;999.90;;;;;;;4.85;79.50;101046.25;15542558;28;20088;-60
2021/11/13 00:20:48;;;;;;;1999.90;999.90;;;;;;;4.91;79.29;101047.88;15512210;28;20427;-58
2021/11/13 00:28:20;;;;;;;1999.90;999.90;;;;;;;4.96;80.10;101033.16;15527102;28;20101;-56
2021/11/13 00:35:54;;;;;;;1999.90;999.90;;;;;;;5.06;79.45;101033.09;15498864;28;20419;-56
2021/11/13 00:43:27;;;;;;;1999.90;999.90;;;;;;;5.11;78.07;101039.41;15548101;28;20038;-62
2021/11/13 00:51:02;;;;;;;1999.90;999.90;;;;;;;4.96;79.13;101033.16;15522097;28;20450;-61
2021/11/13 00:58:36;;;;;;;1999.90;999.90;;;;;;;5.14;77.96;101041.59;15520207;28;20446;-60
2021/11/13 01:06:10;;;;;;;1999.90;999.90;;;;;;;4.93;78.41;101021.56;15549337;28;20046;-59
2021/11/13 01:13:43;;;;;;;1999.90;999.90;;;;;;;4.37;81.48;101023.84;15517810;28;20108;-59
2021/11/13 01:21:17;;;;;;;1999.90;999.90;;;;;;;4.52;81.23;101023.78;15516238;28;20368;-58
2021/11/13 01:28:50;;;;;;;1999.90;999.90;;;;;;;4.76;80.75;101014.78;15530180;28;20038;-59
2021/11/13 01:36:25;;;;;;;1999.90;999.90;;;;;;;4.84;80.35;101015.00;15528424;28;20476;-61
2021/11/13 01:43:58;;;;;;;1999.90;999.90;;;;;;;4.88;80.09;101005.00;15516674;28;20071;-63
2021/11/13 01:51:33;;;;;;;;;;;;;;;5.12;79.56;100988.50;15503599;28;20047;-59
2021/11/13 01:59:08;;;;;;;1999.90;999.90;;;;;;;4.84;80.27;101000.34;15520089;28;19968;-61
2021/11/13 02:06:41;;;;;;;1999.90;999.90;;;;;;;4.84;79.94;101019.69;15526261;28;20419;-60
2021/11/13 02:14:14;;;;;;;1999.90;999.90;;;;;;;5.02;78.71;100999.66;15539394;28;20053;-62
2021/11/13 02:21:48;;;;;;;1999.90;999.90;;;;;;;5.02;79.17;100983.06;15529783;28;20050;-62
2021/11/13 02:29:20;;;;;;;1999.90;999.90;;;;;;;5.35;78.41;100992.44;15516641;28;20050;-61
2021/11/13 02:36:54;;;;;;;1999.90;999.90;;;;;;;5.01;78.78;100994.41;15535968;28;20483;-61
2021/11/13 02:44:27;;;;;;;1999.90;999.90;;;;;;;4.90;79.85;100974.31;15543265;28;20124;-63
2021/11/13 02:52:01;;;;;;;1999.90;999.90;;;;;;;4.84;79.60;100968.00;15555430;28;20108;-59
2021/11/13 02:59:35;;;;;;;1999.90;999.90;;;;;;;4.60;80.82;100994.72;15539206;28;20112;-63
2021/11/13 03:07:09;;;;;;;1999.90;999.90;;;;;;;4.52;81.72;100974.03;15559534;28;20038;-62
2021/11/13 03:14:41;;;;;;;1999.90;999.90;;;;;;;4.54;80.82;100955.22;15540151;28;20045;-62
2021/11/13 03:22:15;;;;;;;1999.90;999.90;;;;;;;4.49;81.47;100938.69;15568271;28;20154;-62
2021/11/13 03:29:48;;;;;;;1999.90;999.90;;;;;;;4.76;80.90;100942.91;15537469;28;20053;-62
2021/11/13 03:37:22;;;;;;;1999.90;999.90;;;;;;;4.71;80.71;100924.41;15537283;28;20056;-62
2021/11/13 03:44:54;;;;;;;1999.90;999.90;;;;;;;4.93;79.88;100933.06;15525090;28;20092;-61
2021/11/13 03:52:29;;;;;;;1999.90;999.90;;;;;;;4.48;81.73;100912.16;15519686;28;20125;-62
2021/11/13 04:00:02;;;;;;;1999.90;999.90;;;;;;;4.79;81.48;100929.31;15521995;28;20046;-61
2021/11/13 04:07:47;;;;;;;1999.90;999.90;;;;;;;4.50;82.52;100896.13;15521230;28;20057;-62
2021/11/13 04:15:20;;;;;;;1999.90;999.90;;;;;;;4.64;81.35;100891.56;15524834;28;20050;-60
2021/11/13 04:22:54;;;;;;;1999.90;999.90;;;;;;;5.16;79.25;100903.81;15555494;28;20096;-61
2021/11/13 04:30:31;;;;;;;1999.90;999.90;;;;;;;5.07;79.88;100908.31;15530834;28;20080;-61
2021/11/13 04:38:05;;;;;;;1999.90;999.90;;;;;;;5.44;77.58;100920.69;15530603;28;20034;-60
2021/11/13 04:45:37;;;;;;;1999.90;999.90;;;;;;;5.30;78.34;100919.72;15534061;28;20042;-60
2021/11/13 04:53:11;;;;;;;1999.90;999.90;;;;;;;5.70;77.32;100935.88;15532371;28;20116;-61
2021/11/13 05:00:43;;;;;;;1999.90;999.90;;;;;;;5.83;76.49;100950.09;15511629;28;20037;-64
2021/11/13 05:08:17;;;;;;;1999.90;999.90;;;;;;;5.78;76.29;100965.69;15534251;28;20046;-60
2021/11/13 05:15:55;;;;;;;1999.90;999.90;;;;;;;5.91;75.86;100957.81;15546654;28;20491;-60
2021/11/13 05:23:28;;;;;;;1999.90;999.90;;;;;;;5.71;75.88;100967.16;15512832;28;20049;-60
2021/11/13 05:31:01;;;;;;;1999.90;999.90;;;;;;;5.74;76.41;100947.19;15513660;28;20345;-60
2021/11/13 05:38:35;;;;;;;1999.90;999.90;;;;;;;5.55;77.75;100954.59;15506929;28;20042;-59
2021/11/13 05:46:07;;;;;;;1999.90;999.90;;;;;;;5.58;77.54;100943.75;15517454;28;20053;-60
2021/11/13 05:53:42;;;;;;;1999.90;999.90;;;;;;;5.53;78.13;100940.25;15517016;28;20080;-60
2021/11/13 06:01:14;;;;;;;1999.90;999.90;;;;;;;5.51;78.58;100948.81;15529908;28;20081;-61
2021/11/13 06:08:48;;;;;;;1999.90;999.90;;;;;;;5.49;78.22;100951.88;15527640;28;20049;-60
2021/11/13 06:16:21;;;;;;;1999.90;999.90;;;;;;;5.36;78.24;100965.59;15518212;28;20467;-60
2021/11/13 06:23:55;;;;;;;1999.90;999.90;;;;;;;5.48;78.23;100963.25;15531606;28;20077;-61
2021/11/13 06:31:28;;;;;;;1999.90;999.90;;;;;;;5.27;78.76;100978.41;15502181;28;20049;-61
2021/11/13 06:39:02;;;;;;;1999.90;999.90;;;;;;;5.40;79.13;100991.56;15528050;28;20129;-61
2021/11/13 06:46:34;;;;;;;1999.90;999.90;;;;;;;5.21;79.90;100992.31;15521628;28;20044;-61
2021/11/13 06:54:09;;;;;;;1999.90;999.90;;;;;;;5.37;79.39;100998.50;15558743;28;20128;-60
2021/11/13 07:01:42;;;;;;;1999.90;999.90;;;;;;;5.76;78.39;101012.22;15513965;28;20069;-58
2021/11/13 07:09:15;;;;;;;1999.90;999.90;;;;;;;6.09;76.48;101020.75;15530250;28;20042;-62
2021/11/13 07:16:48;;;;;;;1999.90;999.90;;;;;;;5.53;78.61;101020.53;15550225;28;20046;-62
2021/11/13 07:24:22;;;;;;;1999.90;999.90;;;;;;;5.81;78.75;101008.56;15530501;28;20435;-61
2021/11/13 07:31:54;;;;;;;1999.90;999.90;;;;;;;5.45;79.57;101010.91;15690641;22;20045;-54
2021/11/13 07:39:31;;;;;;;1999.90;999.90;;;;;;;5.73;80.41;101004.53;15721932;28;20040;-57
2021/11/13 07:47:04;;;;;;;1999.90;999.90;;;;;;;5.94;79.12;100996.84;15680258;28;20049;-54
2021/11/13 07:54:38;;;;;;;1999.90;999.90;;;;;;;6.12;78.96;101000.75;15667652;28;20051;-56
2021/11/13 08:02:11;;;;;;;1999.90;999.90;;;;;;;6.20;78.59;101004.81;15676762;28;20041;-56
2021/11/13 08:09:45;;;;;;;1999.90;999.90;;;;;;;6.73;76.03;101008.22;15677111;28;20037;-56
2021/11/13 08:17:17;;;;;;;1999.90;999.90;;;;;;;6.73;76.12;101007.41;15675747;28;20135;-58
2021/11/13 08:24:54;;;;;;;1999.90;999.90;;;;;;;7.11;74.41;101002.66;15674451;28;20136;-58
2021/11/13 08:32:26;;;;;;;1999.90;999.90;;;;;;;7.36;73.21;101015.25;15633102;28;20053;-58
2021/11/13 08:40:03;;;;;;;1999.90;999.90;;;;;;;7.19;73.80;101015.81;15656946;28;20041;-59
2021/11/13 08:47:36;;;;;;;1999.90;999.90;;;;;;;7.35;73.63;101027.50;15671875;28;20044;-58
2021/11/13 08:55:27;;;;;;;1999.90;999.90;;;;;;;7.74;72.72;101024.31;15611272;28;20053;-57
2021/11/13 09:03:16;;;;;;;1999.90;999.90;;;;;;;7.83;71.98;101033.59;15651467;28;20103;-60
2021/11/13 09:10:52;;;;;;;1999.90;999.90;;;;;;;8.02;70.74;101033.47;15662048;28;20047;-62
2021/11/13 09:18:24;;;;;;;1999.90;999.90;;;;;;;8.00;70.99;101046.84;15698112;28;20102;-62
2021/11/13 09:25:58;;;;;;;1999.90;999.90;;;;;;;8.48;70.26;101046.47;15673917;28;20057;-58
2021/11/13 09:33:33;;;;;;;1999.90;999.90;;;;;;;8.51;69.13;101037.50;15684730;28;20044;-57
2021/11/13 09:41:15;;;;;;;1999.90;999.90;;;;;;;8.66;69.54;101062.22;15681135;28;20041;-59
2021/11/13 09:48:50;;;;;;;1999.90;999.90;;;;;;;8.57;70.20;101056.56;15667872;28;20508;-61
2021/11/13 09:56:25;;;;;;;1999.90;999.90;;;;;;;8.66;69.27;101053.88;15658790;28;20136;-57
2021/11/13 10:03:58;;;;;;;1999.90;999.90;;;;;;;9.31;67.29;101049.84;15674169;28;20059;-59
2021/11/13 10:11:32;;;;;;;1999.90;999.90;;;;;;;9.17;67.68;101042.38;15663662;28;20057;-61
2021/11/13 10:19:07;;;;;;;1999.90;999.90;;;;;;;9.39;67.39;101029.59;15651234;28;20052;-60
2021/11/13 10:26:44;;;;;;;1999.90;999.90;;;;;;;9.77;66.15;101010.44;15664968;28;20127;-60
2021/11/13 10:34:18;;;;;;;1999.90;999.90;;;;;;;10.57;63.71;101008.47;15664834;28;20045;-61
2021/11/13 10:41:55;;;;;;;1999.90;999.90;;;;;;;10.90;63.23;101008.81;15680847;28;20458;-61
2021/11/13 10:49:29;;;;;;;1999.90;999.90;;;;;;;10.39;64.04;100993.66;15670963;28;20132;-62
2021/11/13 10:57:05;;;;;;;1999.90;999.90;;;;;;;9.80;67.23;100977.22;15671160;28;20049;-60
2021/11/13 11:12:35;;;;;;;1999.90;999.90;;;;;;;10.91;63.27;100979.75;15669335;28;20102;-60
2021/11/13 11:20:10;;;;;;;1999.90;999.90;;;;;;;11.59;61.54;100982.75;15672558;28;20136;-61
2021/11/13 11:27:47;;;;;;;1999.90;999.90;;;;;;;10.49;64.30;100984.16;15668361;28;20056;-61
2021/11/13 11:35:24;;;;;;;1999.90;999.90;;;;;;;10.45;65.24;100989.56;15662717;28;20044;-61
2021/11/13 11:43:00;;;;;;;1999.90;999.90;;;;;;;11.40;62.85;100983.97;15671317;28;20045;-61
2021/11/13 11:50:34;;;;;;;1999.90;999.90;;;;;;;14.15;56.02;100984.16;15655467;28;20052;-60
2021/11/13 11:58:12;;;;;;;1999.90;999.90;;;;;;;15.85;50.29;100996.09;15692962;28;20049;-60
2021/11/13 12:05:50;;;;;;;1999.90;999.90;;;;;;;15.06;52.15;100981.81;15670185;28;20067;-61
2021/11/13 12:13:29;;;;;;;1999.90;999.90;;;;;;;17.75;45.85;100993.53;15686200;28;20235;-61
2021/11/13 12:21:10;;;;;;;1999.90;999.90;;;;;;;19.78;40.21;101000.09;15684880;28;20332;-59
2021/11/13 12:28:55;;;;;;;1999.90;999.90;;;;;;;18.84;42.18;100999.34;15669316;28;20124;-59
2021/11/13 12:36:30;;;;;;;1999.90;999.90;;;;;;;19.11;42.05;100994.47;15664545;28;20136;-60
2021/11/13 12:44:10;;;;;;;1999.90;999.90;;;;;;;21.11;38.12;100999.09;15662730;28;20135;-60
2021/11/13 12:51:42;;;;;;;1999.90;999.90;;;;;;;15.72;48.73;101008.56;15666810;28;20071;-61
2021/11/13 12:59:17;;;;;;;1999.90;999.90;;;;;;;13.44;55.98;101004.13;15664286;28;20037;-60
2021/11/13 13:06:53;;;;;;;1999.90;999.90;;;;;;;13.17;57.45;101003.56;15661852;28;20049;-61
2021/11/13 13:14:29;;;;;;;1999.90;999.90;;;;;;;14.28;54.81;101011.06;15658497;28;20482;-61
2021/11/13 13:22:05;;;;;;;1999.90;999.90;;;;;;;14.07;54.38;101005.56;15667017;28;20053;-61
2021/11/13 13:29:41;;;;;;;1999.90;999.90;;;;;;;17.15;47.87;101007.22;15627661;22;20053;-63
2021/11/13 13:37:16;;;;;;;1999.90;999.90;;;;;;;17.70;46.23;101008.75;15605277;28;20038;-63
2021/11/13 13:44:55;;;;;;;1999.90;999.90;;;;;;;16.88;47.59;101001.41;15622695;28;20042;-64
2021/11/13 13:52:40;;;;;;;1999.90;999.90;;;;;;;12.74;58.77;101005.91;15588116;28;20055;-63
2021/11/13 14:00:18;;;;;;;1999.90;999.90;;;;;;;12.19;60.67;101002.09;15639134;28;20045;-63
2021/11/13 14:07:51;;;;;;;1999.90;999.90;;;;;;;12.32;60.42;101000.25;15602199;28;20087;-63
2021/11/13 14:15:28;;;;;;;1999.90;999.90;;;;;;;12.17;61.17;101012.00;15621634;28;20052;-63
2021/11/13 14:23:04;;;;;;;1999.90;999.90;;;;;;;12.28;61.40;101024.44;15623195;28;20041;-63
2021/11/13 14:30:42;;;;;;;1999.90;999.90;;;;;;;12.21;61.49;101025.00;15601085;28;20041;-63
2021/11/13 14:38:15;;;;;;;1999.90;999.90;;;;;;;11.90;62.51;101016.91;15624044;28;20038;-63
2021/11/13 14:45:49;;;;;;;1999.90;999.90;;;;;;;12.21;61.96;101033.38;15610609;28;20144;-63
2021/11/13 14:53:27;;;;;;;1999.90;999.90;;;;;;;12.11;62.39;101039.34;15638165;28;20100;-63
2021/11/13 15:01:02;;;;;;;1999.90;999.90;;;;;;;11.63;64.09;101034.84;15582274;28;20057;-63
2021/11/13 15:08:38;;;;;;;1999.90;999.90;;;;;;;11.37;65.14;101034.09;15598633;28;20071;-62
2021/11/13 15:16:14;;;;;;;1999.90;999.90;;;;;;;11.22;65.78;101046.59;15618414;28;20580;-63
2021/11/13 15:23:47;;;;;;;1999.90;999.90;;;;;;;10.89;67.03;101054.63;15601062;28;20480;-63
2021/11/13 15:31:30;;;;;;;1999.90;999.90;;;;;;;11.05;66.28;101061.41;15600189;28;20051;-62
2021/11/13 15:39:11;;;;;;;1999.90;999.90;;;;;;;10.91;66.69;101055.13;15609930;28;20401;-62
2021/11/13 15:46:47;;;;;;;1999.90;999.90;;;;;;;10.58;66.91;101063.13;15589940;28;20053;-61
2021/11/13 15:54:20;;;;;;;1999.90;999.90;;;;;;;10.25;68.53;101065.47;15623065;28;20045;-62
2021/11/13 16:01:55;;;;;;;1999.90;999.90;;;;;;;10.42;68.09;101082.28;15622221;28;20048;-62
2021/11/13 16:09:28;;;;;;;1999.90;999.90;;;;;;;10.43;67.86;101097.88;15595021;28;20505;-62
2021/11/13 16:17:02;;;;;;;1999.90;999.90;;;;;;;10.08;68.41;101094.88;15618831;28;20045;-63
2021/11/13 16:24:35;;;;;;;1999.90;999.90;;;;;;;9.86;68.82;101091.34;15617705;28;20049;-62
2021/11/13 16:32:09;;;;;;;1999.90;999.90;;;;;;;9.82;68.77;101102.31;15571528;28;20038;-63
2021/11/13 16:39:41;;;;;;;1999.90;999.90;;;;;;;9.69;69.33;101112.41;15574164;28;20037;-62
2021/11/13 16:47:15;;;;;;;1999.90;999.90;;;;;;;9.60;69.55;101111.50;15599610;28;20155;-63
2021/11/13 16:54:48;;;;;;;1999.90;999.90;;;;;;;9.62;70.37;101109.22;15618567;28;20038;-63
2021/11/13 17:02:22;;;;;;;1999.90;999.90;;;;;;;9.55;70.67;101120.81;15600029;28;20129;-62
2021/11/13 17:09:54;;;;;;;1999.90;999.90;;;;;;;9.53;69.88;101125.06;15617562;28;20408;-62
2021/11/13 17:17:28;;;;;;;1999.90;999.90;;;;;;;9.30;70.04;101129.78;15599636;28;20041;-61
2021/11/13 17:25:00;;;;;;;1999.90;999.90;;;;;;;9.13;70.46;101138.78;15582888;28;20049;-62
2021/11/13 17:32:35;;;;;;;1999.90;999.90;;;;;;;9.00;70.29;101138.84;15620782;28;20050;-62
2021/11/13 17:40:10;;;;;;;1999.90;999.90;;;;;;;8.84;70.57;101135.53;15589613;28;20045;-62
2021/11/13 17:47:44;;;;;;;1999.90;999.90;;;;;;;8.64;71.08;101140.41;15601358;28;20498;-63
2021/11/13 17:55:17;;;;;;;1999.90;999.90;;;;;;;8.44;71.14;101143.63;15650873;28;20085;-62
2021/11/13 18:02:52;;;;;;;1999.90;999.90;;;;;;;8.36;71.27;101149.88;15596978;28;20033;-63
2021/11/13 18:10:29;;;;;;;1999.90;999.90;;;;;;;8.27;71.87;101157.25;15609018;28;20088;-61
2021/11/13 18:18:04;;;;;;;1999.90;999.90;;;;;;;8.29;71.73;101168.91;15654583;28;20049;-63
2021/11/13 18:25:39;;;;;;;1999.90;999.90;;;;;;;8.14;72.12;101163.63;15630664;28;20053;-63
2021/11/13 18:33:13;;;;;;;1999.90;999.90;;;;;;;8.03;72.22;101169.38;15622407;28;20099;-63
2021/11/13 18:40:49;;;;;;;1999.90;999.90;;;;;;;7.87;71.91;101175.47;15614355;28;20125;-63
2021/11/13 18:48:25;;;;;;;1999.90;999.90;;;;;;;7.80;71.63;101175.84;15620980;28;20068;-61
2021/11/13 18:55:58;;;;;;;1999.90;999.90;;;;;;;7.55;72.27;101188.22;15642226;28;20490;-61
2021/11/13 19:03:32;;;;;;;1999.90;999.90;;;;;;;7.57;71.94;101194.28;15676930;28;20049;-63
2021/11/13 19:11:06;;;;;;;1999.90;999.90;;;;;;;7.43;71.56;101199.78;15628497;28;20124;-63
2021/11/13 19:18:40;;;;;;;1999.90;999.90;;;;;;;7.30;72.18;101197.75;15619188;28;20402;-64
2021/11/13 19:26:13;;;;;;;1999.90;999.90;;;;;;;7.20;72.28;101209.00;15628901;28;20494;-61
2021/11/13 19:33:47;;;;;;;1999.90;999.90;;;;;;;7.30;71.86;101208.88;15623278;28;20038;-59
2021/11/13 19:41:20;;;;;;;1999.90;999.90;;;;;;;7.09;72.50;101204.72;15601318;28;20049;-57
2021/11/13 19:48:54;;;;;;;1999.90;999.90;;;;;;;7.08;71.88;101208.59;15600355;28;20042;-63
2021/11/13 19:56:27;;;;;;;1999.90;999.90;;;;;;;7.02;72.26;101205.06;15612584;28;20048;-62
2021/11/13 20:04:02;;;;;;;1999.90;999.90;;;;;;;6.98;72.13;101217.88;15595302;28;20042;-57
2021/11/13 20:11:35;;;;;;;1999.90;999.90;;;;;;;6.99;72.45;101221.50;15573340;28;20063;-58
2021/11/13 20:19:09;;;;;;;1999.90;999.90;;;;;;;6.90;72.50;101235.19;15600053;28;20053;-58
2021/11/13 20:26:42;;;;;;;1999.90;999.90;;;;;;;6.75;71.92;101236.19;15575622;28;20045;-59
2021/11/13 20:34:17;;;;;;;1999.90;999.90;;;;;;;6.62;72.23;101254.34;15619355;28;20429;-58
2021/11/13 20:42:04;;;;;;;1999.90;999.90;;;;;;;6.74;72.43;101258.69;15588970;28;20037;-61
2021/11/13 20:49:40;;;;;;;1999.90;999.90;;;;;;;6.77;73.08;101267.22;15576622;28;20045;-61
2021/11/13 20:57:14;;;;;;;1999.90;999.90;;;;;;;6.88;73.34;101277.13;15599519;28;20053;-58
2021/11/13 21:04:49;;;;;;;1999.90;999.90;;;;;;;7.11;72.77;101286.56;15573482;28;20442;-58
2021/11/13 21:12:21;;;;;;;1999.90;999.90;;;;;;;7.19;73.21;101290.59;15597635;28;20048;-59
2021/11/13 21:19:55;;;;;;;1999.90;999.90;;;;;;;7.11;74.30;101292.09;15542120;28;20108;-62
2021/11/13 21:27:29;;;;;;;1999.90;999.90;;;;;;;7.36;73.63;101293.72;15557175;28;20049;-63
2021/11/13 21:35:05;;;;;;;;;;;;;;;7.75;73.33;101295.41;15543765;28;20137;-60
2021/11/13 21:42:38;;;;;;;1999.90;999.90;;;;;;;7.63;73.07;101298.66;15589372;28;20001;-61
2021/11/13 21:50:13;;;;;;;1999.90;999.90;;;;;;;7.71;73.86;101305.47;15559789;28;20451;-63
2021/11/13 21:57:45;;;;;;;1999.90;999.90;;;;;;;7.82;73.95;101307.81;15594874;28;20041;-64
2021/11/13 22:05:20;;;;;;;1999.90;999.90;;;;;;;8.02;74.11;101303.91;15575350;28;20080;-60
2021/11/13 22:12:53;;;;;;;1999.90;999.90;;;;;;;8.02;73.85;101305.84;15614022;28;20045;-60
2021/11/13 22:20:28;;;;;;;1999.90;999.90;;;;;;;8.13;74.09;101326.81;15622170;28;20491;-59
2021/11/13 22:28:00;;;;;;;1999.90;999.90;;;;;;;8.03;74.46;101321.41;15615210;28;20073;-60
2021/11/13 22:35:34;;;;;;;1999.90;999.90;;;;;;;7.91;74.40;101334.91;15608052;28;20049;-60
2021/11/13 22:43:13;;;;;;;1999.90;999.90;;;;;;;8.09;74.14;101339.66;15609173;28;20050;-62
2021/11/13 22:50:48;;;;;;;1999.90;999.90;;;;;;;8.27;73.49;101341.59;15623519;28;20046;-58
2021/11/13 22:58:23;;;;;;;1999.90;999.90;;;;;;;8.26;73.47;101353.84;15591585;28;20041;-57
2021/11/13 23:06:00;;;;;;;1999.90;999.90;;;;;;;8.33;74.51;101356.22;15599012;28;20069;-63
2021/11/13 23:13:34;;;;;;;1999.90;999.90;;;;;;;8.42;73.93;101350.84;15604703;28;20065;-59
2021/11/13 23:21:13;;;;;;;1999.90;999.90;;;;;;;8.48;74.51;101356.03;15582379;28;20121;-59
2021/11/13 23:28:49;;;;;;;1999.90;999.90;;;;;;;8.53;74.02;101360.66;15562834;28;20060;-59
2021/11/13 23:36:23;;;;;;;1999.90;999.90;;;;;;;8.56;74.58;101368.44;15588733;28;20049;-57
2021/11/13 23:43:55;;;;;;;1999.90;999.90;;;;;;;8.65;73.93;101374.94;15601595;28;20052;-61
2021/11/13 23:51:29;;;;;;;1999.90;999.90;;;;;;;8.80;74.34;101385.81;15581508;28;20068;-57
2021/11/13 23:59:03;;;;;;;1999.90;999.90;;;;;;;8.79;74.53;101384.16;15579859;28;20132;-61
